createdAt,value
2019-03-30T00:01:40.263Z,52.10
2019-03-30T00:04:08.902Z,51.80
2019-03-30T00:06:37.620Z,51.90
2019-03-30T00:09:08.119Z,52.50
2019-03-30T00:11:37.027Z,53.10
2019-03-30T00:14:05.791Z,53.30
2019-03-30T00:16:34.415Z,53.20
2019-03-30T00:19:03.157Z,53.10
2019-03-30T00:21:31.897Z,53.00
2019-03-30T00:24:00.561Z,53.10
2019-03-30T00:26:29.215Z,53.20
2019-03-30T00:28:57.925Z,53.20
2019-03-30T00:31:26.594Z,53.20
2019-03-30T00:33:58.307Z,53.70
2019-03-30T00:36:27.038Z,54.10
2019-03-30T00:38:55.736Z,54.50
2019-03-30T00:41:24.467Z,54.80
2019-03-30T00:43:53.166Z,55.00
2019-03-30T00:46:21.886Z,55.00
2019-03-30T00:48:50.546Z,55.10
2019-03-30T00:51:19.272Z,55.10
2019-03-30T00:53:47.922Z,55.50
2019-03-30T00:56:16.569Z,55.90
2019-03-30T00:58:45.343Z,56.20
2019-03-30T01:01:14.062Z,56.30
2019-03-30T01:03:42.878Z,56.30
2019-03-30T01:06:11.713Z,56.10
2019-03-30T01:08:40.523Z,56.50
2019-03-30T01:11:09.317Z,56.50
2019-03-30T01:13:38.110Z,56.70
2019-03-30T01:16:06.835Z,56.70
2019-03-30T01:18:35.573Z,56.70
2019-03-30T01:21:04.371Z,56.50
2019-03-30T01:23:33.106Z,56.70
2019-03-30T01:26:01.765Z,56.30
2019-03-30T01:28:30.493Z,56.10
2019-03-30T01:30:59.218Z,55.90
2019-03-30T01:33:27.905Z,55.60
2019-03-30T01:35:56.559Z,55.60
2019-03-30T01:38:25.300Z,55.70
2019-03-30T01:40:54.001Z,55.50
2019-03-30T01:43:22.728Z,55.80
2019-03-30T01:45:51.458Z,56.00
2019-03-30T01:48:20.245Z,56.50
2019-03-30T01:50:48.967Z,56.60
2019-03-30T01:53:17.622Z,56.60
2019-03-30T01:55:46.406Z,56.60
2019-03-30T01:58:15.005Z,56.50
2019-03-30T02:00:43.674Z,56.70
2019-03-30T02:03:12.395Z,56.90
2019-03-30T02:05:41.068Z,57.20
2019-03-30T02:08:09.798Z,57.10
2019-03-30T02:10:44.384Z,56.90
2019-03-30T02:13:13.098Z,56.80
2019-03-30T02:15:41.901Z,57.10
2019-03-30T02:18:10.696Z,57.10
2019-03-30T02:20:46.956Z,57.00
2019-03-30T02:23:15.939Z,56.60
2019-03-30T02:25:44.670Z,56.60
2019-03-30T02:28:13.486Z,56.80
2019-03-30T02:30:42.199Z,56.90
2019-03-30T02:33:10.859Z,57.10
2019-03-30T02:35:39.983Z,57.30
2019-03-30T02:38:08.723Z,57.30
2019-03-30T02:40:37.362Z,57.60
2019-03-30T02:43:06.234Z,57.60
2019-03-30T02:45:34.972Z,57.80
2019-03-30T02:48:03.707Z,57.70
2019-03-30T02:50:48.563Z,57.80
2019-03-30T02:53:02.877Z,57.80
2019-03-30T02:55:31.610Z,57.90
2019-03-30T02:58:00.399Z,58.20
2019-03-30T03:00:29.219Z,58.40
2019-03-30T03:02:57.986Z,58.40
2019-03-30T03:05:26.789Z,58.10
2019-03-30T03:07:55.511Z,58.00
2019-03-30T03:10:24.417Z,58.00
2019-03-30T03:12:53.193Z,57.80
2019-03-30T03:15:21.938Z,57.80
2019-03-30T03:17:50.600Z,57.70
2019-03-30T03:20:19.350Z,57.90
2019-03-30T03:22:48.002Z,57.30
2019-03-30T03:25:16.639Z,57.40
2019-03-30T03:27:45.452Z,57.60
2019-03-30T03:30:16.191Z,57.90
2019-03-30T03:32:45.124Z,58.30
2019-03-30T03:35:13.985Z,58.20
2019-03-30T03:37:46.203Z,58.30
2019-03-30T03:40:13.374Z,58.40
2019-03-30T03:42:42.290Z,58.20
2019-03-30T03:45:11.175Z,58.40
2019-03-30T03:47:39.896Z,58.50
2019-03-30T03:50:10.244Z,58.50
2019-03-30T03:52:40.161Z,58.60
2019-03-30T03:55:08.956Z,58.60
2019-03-30T03:57:40.564Z,58.40
2019-03-30T04:00:11.151Z,58.90
2019-03-30T04:02:39.986Z,58.30
2019-03-30T04:05:09.666Z,58.20
2019-03-30T04:07:40.728Z,58.00
2019-03-30T04:10:09.620Z,58.20
2019-03-30T04:12:38.336Z,58.50
2019-03-30T04:15:11.544Z,58.60
2019-03-30T04:17:40.269Z,58.30
2019-03-30T04:20:09.083Z,58.30
2019-03-30T04:22:37.804Z,58.40
2019-03-30T04:25:07.411Z,58.60
2019-03-30T04:27:36.043Z,59.00
2019-03-30T04:30:06.560Z,59.60
2019-03-30T04:32:35.360Z,59.80
2019-03-30T04:35:05.594Z,59.70
2019-03-30T04:37:34.343Z,59.80
2019-03-30T04:40:03.361Z,59.90
2019-03-30T04:42:31.990Z,59.30
2019-03-30T04:45:00.656Z,59.30
2019-03-30T04:47:29.466Z,58.80
2019-03-30T04:49:58.251Z,58.70
2019-03-30T04:52:27.006Z,58.50
2019-03-30T04:54:56.107Z,58.60
2019-03-30T04:57:24.839Z,59.20
2019-03-30T04:59:54.822Z,59.40
2019-03-30T05:02:23.645Z,59.90
2019-03-30T05:04:52.370Z,60.40
2019-03-30T05:07:21.186Z,60.50
2019-03-30T05:09:49.897Z,60.00
2019-03-30T05:12:18.558Z,59.70
2019-03-30T05:14:47.269Z,60.00
2019-03-30T05:17:15.959Z,60.60
2019-03-30T05:19:44.759Z,60.60
2019-03-30T05:22:16.464Z,60.40
2019-03-30T05:24:43.857Z,61.10
2019-03-30T05:27:12.628Z,60.70
2019-03-30T05:29:41.358Z,60.70
2019-03-30T05:32:11.545Z,60.50
2019-03-30T05:34:40.201Z,59.80
2019-03-30T05:37:08.857Z,59.60
2019-03-30T05:39:37.512Z,59.80
2019-03-30T05:42:06.227Z,59.60
2019-03-30T05:44:34.964Z,59.10
2019-03-30T05:47:03.674Z,59.30
2019-03-30T05:49:32.362Z,59.20
2019-03-30T05:52:01.023Z,59.50
2019-03-30T05:54:29.675Z,58.30
2019-03-30T05:56:58.347Z,57.90
2019-03-30T05:59:27.007Z,57.30
2019-03-30T06:01:55.665Z,56.70
2019-03-30T06:04:24.330Z,57.10
2019-03-30T06:06:52.988Z,56.90
2019-03-30T06:09:21.645Z,56.50
2019-03-30T06:11:50.310Z,55.70
2019-03-30T06:14:18.976Z,55.40
2019-03-30T06:16:47.629Z,55.30
2019-03-30T06:19:16.292Z,55.00
2019-03-30T06:21:44.946Z,54.80
2019-03-30T06:24:13.685Z,55.00
2019-03-30T06:26:42.361Z,54.60
2019-03-30T06:29:11.010Z,54.60
2019-03-30T06:31:39.662Z,54.50
2019-03-30T06:34:08.398Z,53.80
2019-03-30T06:36:37.122Z,53.60
2019-03-30T06:39:06.322Z,53.80
2019-03-30T06:41:34.983Z,54.00
2019-03-30T06:44:03.812Z,53.60
2019-03-30T06:46:32.549Z,53.00
2019-03-30T06:49:01.243Z,53.10
2019-03-30T06:51:29.955Z,53.30
2019-03-30T06:53:59.327Z,53.90
2019-03-30T06:56:28.007Z,54.30
2019-03-30T06:58:56.902Z,55.40
2019-03-30T07:01:25.731Z,55.40
2019-03-30T07:03:54.813Z,55.60
2019-03-30T07:06:24.018Z,54.90
2019-03-30T07:08:54.379Z,56.20
2019-03-30T07:11:25.624Z,57.40
2019-03-30T07:13:57.344Z,57.70
2019-03-30T07:16:28.247Z,58.20
2019-03-30T07:19:00.106Z,58.60
2019-03-30T07:21:30.757Z,58.40
2019-03-30T07:23:59.477Z,58.80
2019-03-30T07:26:28.217Z,58.90
2019-03-30T07:28:56.877Z,58.70
2019-03-30T07:31:25.783Z,58.20
2019-03-30T07:33:54.431Z,58.70
2019-03-30T07:36:23.159Z,58.70
2019-03-30T07:38:51.813Z,58.40
2019-03-30T07:41:20.508Z,58.30
2019-03-30T07:43:49.223Z,58.40
2019-03-30T07:46:21.891Z,58.00
2019-03-30T07:48:50.593Z,57.50
2019-03-30T07:51:19.267Z,56.40
2019-03-30T07:53:47.999Z,54.00
2019-03-30T07:56:17.011Z,53.40
2019-03-30T07:58:45.717Z,52.00
2019-03-30T08:01:14.452Z,50.90
2019-03-30T08:03:43.223Z,50.20
2019-03-30T08:06:11.884Z,49.50
2019-03-30T08:08:40.614Z,48.50
2019-03-30T08:11:09.278Z,48.50
2019-03-30T08:13:37.936Z,48.90
2019-03-30T08:16:06.891Z,48.50
2019-03-30T08:18:35.748Z,48.30
2019-03-30T08:21:04.674Z,47.60
2019-03-30T08:23:40.347Z,47.10
2019-03-30T08:26:03.756Z,47.00
2019-03-30T08:28:32.405Z,47.90
2019-03-30T08:31:01.428Z,47.60
2019-03-30T08:33:30.119Z,48.30
2019-03-30T08:35:58.924Z,47.30
2019-03-30T08:38:27.564Z,46.90
2019-03-30T08:40:56.218Z,46.60
2019-03-30T08:43:24.883Z,46.10
2019-03-30T08:45:53.536Z,46.40
2019-03-30T08:48:22.205Z,44.80
2019-03-30T08:50:50.923Z,45.80
2019-03-30T08:53:19.577Z,44.70
2019-03-30T08:55:48.234Z,44.30
2019-03-30T08:58:16.904Z,44.90
2019-03-30T09:00:45.559Z,44.30
2019-03-30T09:03:14.292Z,44.20
2019-03-30T09:05:43.098Z,43.80
2019-03-30T09:08:11.886Z,43.40
2019-03-30T09:10:40.585Z,42.50
2019-03-30T09:13:09.307Z,42.50
2019-03-30T09:15:37.982Z,42.70
2019-03-30T09:18:06.710Z,42.00
2019-03-30T09:20:35.378Z,41.40
2019-03-30T09:23:04.104Z,41.50
2019-03-30T09:25:32.764Z,41.10
2019-03-30T09:28:01.410Z,41.00
2019-03-30T09:30:30.102Z,40.80
2019-03-30T09:32:58.763Z,40.40
2019-03-30T09:35:27.412Z,41.50
2019-03-30T09:37:56.078Z,40.80
2019-03-30T09:40:24.801Z,39.00
2019-03-30T09:42:53.479Z,37.00
2019-03-30T09:45:22.194Z,35.40
2019-03-30T09:47:50.915Z,34.50
2019-03-30T09:50:19.577Z,32.60
2019-03-30T09:52:48.296Z,32.40
2019-03-30T09:55:17.020Z,31.90
2019-03-30T09:57:45.739Z,31.90
2019-03-30T10:00:14.530Z,31.00
2019-03-30T10:02:43.180Z,30.50
2019-03-30T10:05:12.503Z,30.10
2019-03-30T10:07:41.159Z,29.00
2019-03-30T10:10:10.054Z,28.90
2019-03-30T10:12:38.709Z,28.90
2019-03-30T10:15:08.051Z,28.80
2019-03-30T10:17:36.713Z,28.70
2019-03-30T10:20:07.213Z,27.40
2019-03-30T10:22:35.853Z,27.10
2019-03-30T10:25:06.065Z,27.30
2019-03-30T10:27:34.781Z,28.20
2019-03-30T10:30:04.337Z,28.20
2019-03-30T10:32:33.043Z,27.00
2019-03-30T10:35:01.715Z,26.50
2019-03-30T10:37:30.424Z,25.60
2019-03-30T10:39:59.094Z,25.10
2019-03-30T10:42:27.786Z,24.70
2019-03-30T10:44:56.439Z,25.90
2019-03-30T10:47:25.102Z,25.60
2019-03-30T10:49:53.783Z,25.00
2019-03-30T10:52:22.447Z,25.10
2019-03-30T10:54:52.811Z,25.00
2019-03-30T10:57:21.415Z,24.10
2019-03-30T10:59:50.201Z,24.60
2019-03-30T11:02:18.920Z,25.20
2019-03-30T11:04:47.602Z,23.80
2019-03-30T11:07:16.384Z,24.30
2019-03-30T11:09:45.249Z,23.80
2019-03-30T11:12:13.952Z,23.40
2019-03-30T11:14:42.703Z,22.00
2019-03-30T11:17:11.451Z,22.30
2019-03-30T11:19:40.115Z,22.20
2019-03-30T11:22:08.782Z,22.50
2019-03-30T11:24:37.423Z,21.10
2019-03-30T11:27:06.081Z,21.40
2019-03-30T11:29:34.754Z,20.40
2019-03-30T11:32:03.419Z,21.40
2019-03-30T11:34:32.081Z,20.80
2019-03-30T11:37:00.810Z,20.40
2019-03-30T11:39:29.577Z,20.20
2019-03-30T11:41:58.236Z,19.70
2019-03-30T11:44:26.882Z,19.50
2019-03-30T11:46:55.546Z,19.60
2019-03-30T11:49:24.276Z,18.90
2019-03-30T11:51:53.011Z,17.80
2019-03-30T11:54:21.651Z,18.40
2019-03-30T11:56:50.393Z,19.70
2019-03-30T11:59:19.041Z,18.70
2019-03-30T12:01:47.707Z,19.30
2019-03-30T12:04:17.913Z,18.70
2019-03-30T12:06:46.733Z,18.60
2019-03-30T12:09:15.462Z,18.80
2019-03-30T12:11:44.141Z,19.70
2019-03-30T12:14:12.770Z,19.90
2019-03-30T12:16:41.430Z,19.80
2019-03-30T12:19:10.084Z,19.80
2019-03-30T12:21:38.862Z,19.60
2019-03-30T12:24:07.582Z,19.10
2019-03-30T12:26:36.248Z,19.50
2019-03-30T12:29:05.660Z,18.80
2019-03-30T12:31:34.315Z,19.00
2019-03-30T12:34:02.982Z,18.80
2019-03-30T12:36:31.710Z,18.80
2019-03-30T12:39:00.513Z,18.00
2019-03-30T12:41:29.315Z,17.40
2019-03-30T12:43:58.086Z,18.10
2019-03-30T12:46:26.874Z,17.60
2019-03-30T12:48:55.534Z,18.00
2019-03-30T12:51:24.219Z,18.50
2019-03-30T12:53:52.857Z,18.60
2019-03-30T12:56:21.591Z,18.50
2019-03-30T12:58:50.315Z,18.70
2019-03-30T13:01:18.982Z,18.90
2019-03-30T13:03:47.710Z,19.30
2019-03-30T13:06:16.381Z,19.30
2019-03-30T13:08:45.047Z,18.80
2019-03-30T13:11:13.782Z,18.30
2019-03-30T13:13:42.451Z,18.00
2019-03-30T13:16:11.153Z,17.40
2019-03-30T13:18:39.802Z,17.50
2019-03-30T13:21:08.534Z,18.70
2019-03-30T13:23:37.202Z,18.70
2019-03-30T13:26:05.861Z,18.70
2019-03-30T13:28:34.549Z,18.00
2019-03-30T13:31:03.249Z,18.70
2019-03-30T13:33:31.927Z,18.60
2019-03-30T13:36:00.590Z,17.80
2019-03-30T13:38:29.249Z,17.30
2019-03-30T13:40:57.910Z,17.90
2019-03-30T13:43:26.586Z,18.00
2019-03-30T13:45:55.236Z,17.90
2019-03-30T13:48:23.934Z,17.90
2019-03-30T13:50:52.583Z,18.10
2019-03-30T13:53:21.262Z,18.00
2019-03-30T13:55:49.993Z,18.20
2019-03-30T13:58:18.781Z,18.60
2019-03-30T14:00:47.520Z,18.60
2019-03-30T14:03:16.219Z,18.60
2019-03-30T14:05:44.886Z,18.70
2019-03-30T14:08:13.539Z,18.70
2019-03-30T14:10:42.214Z,19.30
2019-03-30T14:13:10.900Z,18.90
2019-03-30T14:15:39.567Z,17.70
2019-03-30T14:18:08.222Z,16.70
2019-03-30T14:20:36.970Z,16.10
2019-03-30T14:23:05.689Z,15.80
2019-03-30T14:25:34.356Z,15.30
2019-03-30T14:28:03.020Z,14.70
2019-03-30T14:30:31.675Z,14.90
2019-03-30T14:33:00.334Z,15.80
2019-03-30T14:35:29.072Z,15.70
2019-03-30T14:37:57.844Z,16.50
2019-03-30T14:40:26.562Z,15.70
2019-03-30T14:42:55.230Z,15.80
2019-03-30T14:45:23.953Z,15.10
2019-03-30T14:47:52.613Z,15.20
2019-03-30T14:50:21.339Z,15.50
2019-03-30T14:52:49.993Z,15.40
2019-03-30T14:55:18.651Z,15.40
2019-03-30T14:57:47.401Z,15.30
2019-03-30T15:00:16.337Z,15.70
2019-03-30T15:02:45.130Z,15.50
2019-03-30T15:05:14.137Z,15.70
2019-03-30T15:07:42.862Z,15.10
2019-03-30T15:10:12.754Z,15.70
2019-03-30T15:12:41.504Z,16.30
2019-03-30T15:15:11.401Z,16.00
2019-03-30T15:17:41.009Z,15.70
2019-03-30T15:20:12.129Z,15.40
2019-03-30T15:22:40.782Z,14.80
2019-03-30T15:25:10.586Z,14.40
2019-03-30T15:27:51.246Z,15.20
2019-03-30T15:30:19.898Z,15.90
2019-03-30T15:32:48.643Z,15.50
2019-03-30T15:35:17.506Z,15.30
2019-03-30T15:37:46.239Z,15.80
2019-03-30T15:40:15.030Z,15.80
2019-03-30T15:42:43.690Z,16.60
2019-03-30T15:45:12.681Z,15.80
2019-03-30T15:47:41.361Z,15.50
2019-03-30T15:50:10.796Z,16.30
2019-03-30T15:52:39.519Z,15.80
2019-03-30T15:55:08.528Z,15.00
2019-03-30T15:57:37.308Z,14.60
2019-03-30T16:00:11.241Z,14.60
2019-03-30T16:02:40.034Z,14.70
2019-03-30T16:05:08.838Z,15.10
2019-03-30T16:07:37.506Z,15.70
2019-03-30T16:10:06.814Z,16.60
2019-03-30T16:12:35.539Z,18.80
2019-03-30T16:15:07.864Z,18.80
2019-03-30T16:17:38.046Z,18.90
2019-03-30T16:20:08.599Z,19.60
2019-03-30T16:22:37.310Z,20.20
2019-03-30T16:25:07.481Z,20.40
2019-03-30T16:27:39.052Z,20.90
2019-03-30T16:30:07.734Z,21.00
2019-03-30T16:32:36.483Z,22.00
2019-03-30T16:35:06.054Z,22.00
2019-03-30T16:37:34.717Z,23.10
2019-03-30T16:40:03.911Z,23.70
2019-03-30T16:42:32.647Z,24.00
2019-03-30T16:45:01.387Z,23.50
2019-03-30T16:47:30.049Z,23.10
2019-03-30T16:49:58.781Z,23.60
2019-03-30T16:52:27.465Z,23.50
2019-03-30T16:54:56.204Z,23.40
2019-03-30T16:57:24.858Z,23.50
2019-03-30T16:59:53.578Z,23.60
2019-03-30T17:02:22.276Z,23.90
2019-03-30T17:04:50.961Z,24.00
2019-03-30T17:07:19.687Z,24.10
2019-03-30T17:09:48.442Z,24.40
2019-03-30T17:12:17.175Z,24.90
2019-03-30T17:14:45.833Z,24.80
2019-03-30T17:17:14.493Z,24.70
2019-03-30T17:19:43.161Z,24.90
2019-03-30T17:22:11.885Z,25.30
2019-03-30T17:24:40.550Z,25.60
2019-03-30T17:27:09.269Z,25.70
2019-03-30T17:29:37.963Z,25.90
2019-03-30T17:32:06.585Z,26.10
2019-03-30T17:34:35.288Z,26.40
2019-03-30T17:37:03.934Z,26.60
2019-03-30T17:39:32.589Z,26.80
2019-03-30T17:42:01.327Z,27.10
2019-03-30T17:44:30.045Z,27.30
2019-03-30T17:46:58.708Z,27.50
2019-03-30T17:49:27.462Z,27.20
2019-03-30T17:51:56.153Z,27.50
2019-03-30T17:54:24.865Z,27.80
2019-03-30T17:56:53.604Z,28.40
2019-03-30T17:59:23.826Z,28.30
2019-03-30T18:01:52.756Z,28.40
2019-03-30T18:04:21.521Z,28.60
2019-03-30T18:06:50.262Z,29.30
2019-03-30T18:09:18.966Z,30.30
2019-03-30T18:11:47.651Z,30.50
2019-03-30T18:14:16.314Z,30.50
2019-03-30T18:16:44.977Z,30.70
2019-03-30T18:19:13.630Z,30.70
2019-03-30T18:21:42.348Z,31.80
2019-03-30T18:24:10.998Z,31.70
2019-03-30T18:26:39.670Z,31.80
2019-03-30T18:29:08.334Z,32.30
2019-03-30T18:31:37.362Z,32.60
2019-03-30T18:34:06.078Z,33.40
2019-03-30T18:36:36.769Z,33.80
2019-03-30T18:39:09.976Z,33.90
2019-03-30T18:41:37.332Z,34.80
2019-03-30T18:44:05.980Z,34.40
2019-03-30T18:46:34.644Z,34.50
2019-03-30T18:49:03.313Z,34.30
2019-03-30T18:51:32.354Z,33.90
2019-03-30T18:54:02.267Z,35.00
2019-03-30T18:56:30.925Z,34.60
2019-03-30T18:58:59.594Z,35.30
2019-03-30T19:01:28.330Z,34.60
2019-03-30T19:03:57.042Z,34.60
2019-03-30T19:06:25.664Z,35.20
2019-03-30T19:08:54.349Z,35.30
2019-03-30T19:11:23.158Z,35.70
2019-03-30T19:13:51.822Z,35.90
2019-03-30T19:16:20.491Z,36.10
2019-03-30T19:18:49.226Z,36.20
2019-03-30T19:21:17.864Z,36.90
2019-03-30T19:23:46.525Z,36.50
2019-03-30T19:26:15.205Z,37.00
2019-03-30T19:28:55.657Z,37.10
2019-03-30T19:31:14.175Z,37.30
2019-03-30T19:33:42.897Z,37.40
2019-03-30T19:36:11.554Z,37.50
2019-03-30T19:38:40.221Z,37.80
2019-03-30T19:41:08.906Z,37.80
2019-03-30T19:43:37.548Z,37.80
2019-03-30T19:46:06.350Z,37.90
2019-03-30T19:48:36.924Z,38.40
2019-03-30T19:51:05.460Z,38.20
2019-03-30T19:53:34.134Z,38.90
2019-03-30T19:56:02.870Z,39.90
2019-03-30T19:58:31.642Z,39.70
2019-03-30T20:01:00.357Z,40.10
2019-03-30T20:03:29.099Z,40.30
2019-03-30T20:05:57.763Z,40.40
2019-03-30T20:08:26.500Z,40.20
2019-03-30T20:10:55.148Z,40.50
2019-03-30T20:13:24.413Z,40.10
2019-03-30T20:15:53.099Z,40.30
2019-03-30T20:18:21.821Z,40.30
2019-03-30T20:20:50.576Z,40.70
2019-03-30T20:23:19.221Z,41.50
2019-03-30T20:25:47.959Z,41.20
2019-03-30T20:28:16.667Z,41.00
2019-03-30T20:30:45.328Z,41.30
2019-03-30T20:33:14.062Z,41.20
2019-03-30T20:35:42.713Z,41.80
2019-03-30T20:38:11.371Z,41.90
2019-03-30T20:40:40.044Z,42.50
2019-03-30T20:43:08.710Z,43.20
2019-03-30T20:45:37.382Z,43.00
2019-03-30T20:48:06.108Z,43.10
2019-03-30T20:50:34.800Z,43.50
2019-03-30T20:53:03.549Z,43.50
2019-03-30T20:55:33.889Z,44.20
2019-03-30T20:58:02.572Z,43.20
2019-03-30T21:00:31.286Z,43.20
2019-03-30T21:02:59.961Z,42.80
2019-03-30T21:05:28.634Z,42.80
2019-03-30T21:07:59.854Z,42.50
2019-03-30T21:10:28.563Z,42.90
2019-03-30T21:12:57.224Z,42.30
2019-03-30T21:15:25.881Z,43.00
2019-03-30T21:17:54.565Z,43.40
2019-03-30T21:20:23.299Z,43.70
2019-03-30T21:22:51.982Z,44.10
2019-03-30T21:25:20.643Z,44.40
2019-03-30T21:27:49.357Z,44.60
2019-03-30T21:30:18.431Z,45.10
2019-03-30T21:32:47.095Z,45.30
2019-03-30T21:35:15.770Z,45.00
2019-03-30T21:37:44.439Z,45.20
2019-03-30T21:40:13.245Z,45.70
2019-03-30T21:42:41.902Z,46.20
2019-03-30T21:45:11.514Z,46.00
2019-03-30T21:47:40.170Z,45.60
2019-03-30T21:50:09.500Z,45.40
2019-03-30T21:52:38.158Z,45.20
2019-03-30T21:55:06.949Z,45.20
2019-03-30T21:57:35.718Z,45.00
2019-03-30T22:00:10.542Z,44.70
2019-03-30T22:02:37.135Z,44.90
2019-03-30T22:05:08.997Z,45.20
2019-03-30T22:07:37.731Z,45.60
2019-03-30T22:10:11.168Z,45.80
2019-03-30T22:12:42.004Z,46.40
2019-03-30T22:15:10.834Z,46.30
2019-03-30T22:17:39.493Z,46.40
2019-03-30T22:20:08.291Z,46.00
2019-03-30T22:22:36.969Z,46.00
2019-03-30T22:25:06.263Z,45.90
2019-03-30T22:27:34.917Z,46.20
2019-03-30T22:30:05.590Z,46.70
2019-03-30T22:32:34.316Z,46.80
2019-03-30T22:35:03.125Z,47.20
2019-03-30T22:37:31.853Z,47.60
2019-03-30T22:40:00.541Z,48.00
2019-03-30T22:42:29.262Z,47.80
2019-03-30T22:44:58.045Z,47.60
2019-03-30T22:47:26.714Z,47.40
2019-03-30T22:49:55.392Z,47.30
2019-03-30T22:52:24.053Z,47.00
2019-03-30T22:54:52.789Z,47.00
2019-03-30T22:57:21.437Z,46.90
2019-03-30T22:59:50.183Z,46.90
2019-03-30T23:02:18.934Z,46.90
2019-03-30T23:04:47.627Z,46.70
2019-03-30T23:07:16.392Z,46.90
2019-03-30T23:09:45.082Z,46.90
2019-03-30T23:12:13.732Z,47.00
2019-03-30T23:14:42.561Z,47.40
2019-03-30T23:17:11.320Z,47.50
2019-03-30T23:19:40.047Z,47.60
2019-03-30T23:22:08.769Z,47.50
2019-03-30T23:24:37.448Z,47.70
2019-03-30T23:30:33.578Z,47.70
2019-03-30T23:33:19.366Z,47.60
2019-03-30T23:35:48.154Z,47.50
2019-03-30T23:41:52.047Z,47.50
2019-03-30T23:44:23.815Z,47.80
2019-03-30T23:46:52.607Z,48.20
